Time;durP1;ratioP1;P1;durP2;ratioP2;P2;SDS_P1;SDS_P2;PMS_P1;PMS_P2;Temp;Humidity;BMP_temperature;BMP_pressure;BME280_temperature;BME280_humidity;BME280_pressure;Samples;Min_cycle;Max_cycle;Signal;HPM_P1;HPM_P2
2024/03/05 00:01:31;;;;;;;20.55;13.75;;;;;;;;;;5038866;28;20235;-95
2024/03/05 00:03:59;;;;;;;17.52;12.48;;;;;;;;;;5038875;28;20206;-94
2024/03/05 00:06:29;;;;;;;19.95;12.65;;;;;;;;;;5037773;28;20203;-94
2024/03/05 00:08:57;;;;;;;18.88;13.63;;;;;;;;;;5036822;28;20207;-94
2024/03/05 00:11:24;;;;;;;19.92;13.80;;;;;;;;;;5037051;28;20217;-94
2024/03/05 00:13:53;;;;;;;20.83;13.32;;;;;;;;;;5037164;28;20210;-94
2024/03/05 00:16:20;;;;;;;18.85;13.27;;;;;;;;;;5036342;28;20238;-94
2024/03/05 00:18:48;;;;;;;18.92;13.48;;;;;;;;;;5037019;28;20217;-94
2024/03/05 00:21:16;;;;;;;19.80;13.13;;;;;;;;;;5035855;28;20238;-94
2024/03/05 00:23:45;;;;;;;15.30;11.68;;;;;;;;;;5034516;28;20202;-94
2024/03/05 00:26:18;;;;;;;15.95;12.15;;;;;;;;;;5034232;28;20214;-93
2024/03/05 00:28:45;;;;;;;17.38;12.20;;;;;;;;;;5034812;28;20210;-95
2024/03/05 00:31:13;;;;;;;16.90;11.68;;;;;;;;;;5033414;28;20230;-93
2024/03/05 00:33:41;;;;;;;16.33;11.88;;;;;;;;;;5033715;28;20218;-94
2024/03/05 00:36:09;;;;;;;12.48;9.32;;;;;;;;;;5035017;28;20203;-93
2024/03/05 00:38:37;;;;;;;21.23;13.05;;;;;;;;;;5035368;28;20210;-94
2024/03/05 00:41:06;;;;;;;12.70;8.25;;;;;;;;;;5034499;28;20230;-94
2024/03/05 00:43:34;;;;;;;17.58;12.07;;;;;;;;;;5037717;28;20250;-93
2024/03/05 00:46:01;;;;;;;18.40;11.77;;;;;;;;;;5035653;28;20203;-93
2024/03/05 00:48:29;;;;;;;17.85;10.88;;;;;;;;;;5035476;28;20573;-94
2024/03/05 00:50:57;;;;;;;15.07;11.48;;;;;;;;;;5034471;28;20234;-93
2024/03/05 00:53:24;;;;;;;18.35;12.57;;;;;;;;;;5034351;28;20203;-94
2024/03/05 00:55:52;;;;;;;15.90;10.90;;;;;;;;;;5035576;28;20221;-94
2024/03/05 00:58:21;;;;;;;20.40;12.55;;;;;;;;;;5037495;28;20202;-94
2024/03/05 01:00:49;;;;;;;16.25;12.30;;;;;;;;;;5037192;28;20257;-94
2024/03/05 01:03:17;;;;;;;17.00;12.55;;;;;;;;;;5036944;28;20708;-94
2024/03/05 01:05:45;;;;;;;14.90;11.07;;;;;;;;;;5037930;28;20202;-95
2024/03/05 01:08:13;;;;;;;14.32;10.80;;;;;;;;;;5038515;28;20183;-93
2024/03/05 01:10:41;;;;;;;11.35;8.48;;;;;;;;;;5034187;28;20227;-93
2024/03/05 01:13:09;;;;;;;14.68;11.10;;;;;;;;;;5034702;28;20270;-93
2024/03/05 01:15:38;;;;;;;17.50;12.10;;;;;;;;;;5035302;28;20214;-93
2024/03/05 01:18:06;;;;;;;13.35;9.98;;;;;;;;;;5035517;28;20218;-93
2024/03/05 01:20:34;;;;;;;16.55;11.90;;;;;;;;;;5036430;28;20299;-93
2024/03/05 01:23:01;;;;;;;19.70;12.60;;;;;;;;;;5037437;28;20239;-94
2024/03/05 01:25:29;;;;;;;15.52;12.10;;;;;;;;;;5037888;28;20190;-95
2024/03/05 01:27:57;;;;;;;16.08;10.93;;;;;;;;;;5038083;28;20190;-94
2024/03/05 01:30:25;;;;;;;16.65;10.73;;;;;;;;;;5037532;28;20270;-94
2024/03/05 01:32:57;;;;;;;17.55;12.15;;;;;;;;;;5037178;28;20211;-93
2024/03/05 01:35:24;;;;;;;17.67;13.05;;;;;;;;;;5037281;28;20214;-93
2024/03/05 01:37:52;;;;;;;14.82;10.77;;;;;;;;;;5034395;28;20226;-93
2024/03/05 01:40:20;;;;;;;16.95;13.00;;;;;;;;;;5034609;28;20223;-93
2024/03/05 01:42:48;;;;;;;16.67;11.13;;;;;;;;;;5035010;28;20229;-93
2024/03/05 01:45:18;;;;;;;15.93;11.15;;;;;;;;;;5034830;28;20274;-94
2024/03/05 01:47:46;;;;;;;14.82;10.85;;;;;;;;;;5034896;28;20209;-93
2024/03/05 01:50:16;;;;;;;13.38;10.30;;;;;;;;;;5034766;28;20207;-93
2024/03/05 01:52:44;;;;;;;14.73;10.60;;;;;;;;;;5037888;28;20178;-93
2024/03/05 01:55:15;;;;;;;13.73;10.75;;;;;;;;;;5037862;28;20202;-94
2024/03/05 01:57:46;;;;;;;14.13;10.77;;;;;;;;;;5037899;28;20175;-93
2024/03/05 02:00:20;;;;;;;13.50;11.05;;;;;;;;;;5037745;28;20222;-94
2024/03/05 02:02:49;;;;;;;16.58;12.25;;;;;;;;;;5039177;28;20234;-93
2024/03/05 02:05:18;;;;;;;16.95;12.45;;;;;;;;;;5039597;28;20193;-94
2024/03/05 02:07:47;;;;;;;16.90;12.30;;;;;;;;;;5038034;28;20207;-94
2024/03/05 02:10:16;;;;;;;19.85;11.85;;;;;;;;;;5039864;28;20230;-93
2024/03/05 02:12:43;;;;;;;16.27;12.82;;;;;;;;;;5037205;28;20553;-94
2024/03/05 02:15:12;;;;;;;17.13;11.98;;;;;;;;;;5038245;28;20199;-94
2024/03/05 02:17:42;;;;;;;19.05;12.27;;;;;;;;;;5036767;28;20209;-93
2024/03/05 02:20:13;;;;;;;16.02;12.60;;;;;;;;;;5035888;28;20231;-93
2024/03/05 02:22:42;;;;;;;18.65;13.82;;;;;;;;;;5035615;28;20226;-93
2024/03/05 02:25:10;;;;;;;17.65;12.73;;;;;;;;;;5036967;28;20218;-93
2024/03/05 02:27:38;;;;;;;18.48;13.30;;;;;;;;;;5035372;28;20207;-94
2024/03/05 02:30:11;;;;;;;18.58;13.88;;;;;;;;;;5036835;28;20779;-94
2024/03/05 02:32:40;;;;;;;16.98;12.75;;;;;;;;;;5036493;28;20199;-93
2024/03/05 02:35:10;;;;;;;19.75;13.73;;;;;;;;;;5036253;28;20262;-93
2024/03/05 02:37:38;;;;;;;18.90;13.07;;;;;;;;;;5035920;28;20203;-95
2024/03/05 02:40:10;;;;;;;19.10;14.65;;;;;;;;;;5037255;28;20246;-94
2024/03/05 02:42:38;;;;;;;22.05;14.05;;;;;;;;;;5037014;28;20207;-93
2024/03/05 02:45:07;;;;;;;18.55;14.10;;;;;;;;;;5036924;28;20213;-93
2024/03/05 02:47:36;;;;;;;18.50;13.45;;;;;;;;;;5037702;28;20203;-94
2024/03/05 02:50:04;;;;;;;17.40;12.52;;;;;;;;;;5037819;28;20219;-94
2024/03/05 02:52:31;;;;;;;19.48;15.32;;;;;;;;;;5039050;28;20254;-94
2024/03/05 02:55:00;;;;;;;18.48;13.48;;;;;;;;;;5038604;28;20214;-94
2024/03/05 02:57:29;;;;;;;20.65;14.10;;;;;;;;;;5039586;28;20195;-94
2024/03/05 02:59:56;;;;;;;19.88;14.38;;;;;;;;;;5039799;28;20202;-94
2024/03/05 03:02:24;;;;;;;18.52;12.82;;;;;;;;;;5107132;22;20223;-94
2024/03/05 03:04:51;;;;;;;17.25;13.23;;;;;;;;;;5015845;28;20238;-94
2024/03/05 03:07:19;;;;;;;16.35;12.35;;;;;;;;;;5015720;28;20272;-94
2024/03/05 03:09:47;;;;;;;19.65;13.70;;;;;;;;;;5017130;28;20200;-93
2024/03/05 03:12:16;;;;;;;17.52;12.25;;;;;;;;;;5014826;28;20228;-95
2024/03/05 03:14:46;;;;;;;19.73;14.73;;;;;;;;;;5013384;28;20222;-94
2024/03/05 03:17:14;;;;;;;14.93;11.93;;;;;;;;;;5014076;28;20207;-95
2024/03/05 03:19:42;;;;;;;15.52;11.65;;;;;;;;;;5019707;28;20198;-94
2024/03/05 03:22:10;;;;;;;13.40;11.15;;;;;;;;;;5017043;28;20224;-94
2024/03/05 03:24:37;;;;;;;15.82;12.55;;;;;;;;;;5014080;28;20211;-94
2024/03/05 03:27:05;;;;;;;14.20;11.52;;;;;;;;;;5015031;28;20203;-94
2024/03/05 03:29:34;;;;;;;14.00;11.88;;;;;;;;;;5015414;28;20207;-95
2024/03/05 03:32:04;;;;;;;14.55;10.32;;;;;;;;;;5016544;28;20238;-94
2024/03/05 03:34:33;;;;;;;14.23;11.05;;;;;;;;;;5015763;28;20208;-94
2024/03/05 03:37:01;;;;;;;11.38;9.30;;;;;;;;;;5015067;28;20203;-95
2024/03/05 03:39:29;;;;;;;9.73;7.10;;;;;;;;;;5015716;28;20231;-94
2024/03/05 03:41:57;;;;;;;9.57;6.82;;;;;;;;;;5017822;28;20223;-93
2024/03/05 03:44:25;;;;;;;9.30;8.18;;;;;;;;;;5019011;28;20208;-94
2024/03/05 03:46:52;;;;;;;14.65;10.77;;;;;;;;;;5018582;28;20184;-94
2024/03/05 03:49:24;;;;;;;15.32;11.20;;;;;;;;;;5018682;28;20196;-94
2024/03/05 03:51:53;;;;;;;16.02;12.55;;;;;;;;;;5016366;28;20283;-95
2024/03/05 03:54:21;;;;;;;17.95;11.98;;;;;;;;;;5015137;28;20183;-95
2024/03/05 03:56:49;;;;;;;16.83;12.07;;;;;;;;;;5013707;28;20211;-95
2024/03/05 03:59:17;;;;;;;11.73;10.18;;;;;;;;;;5014663;28;20204;-94
2024/03/05 04:01:47;;;;;;;12.18;9.13;;;;;;;;;;5017977;28;20235;-94
2024/03/05 04:04:15;;;;;;;10.65;9.02;;;;;;;;;;5015085;28;20316;-94
2024/03/05 04:06:45;;;;;;;11.52;9.60;;;;;;;;;;5015621;28;20203;-95
2024/03/05 04:09:14;;;;;;;9.05;7.75;;;;;;;;;;5016086;28;20192;-93
2024/03/05 04:11:42;;;;;;;8.70;7.20;;;;;;;;;;5016105;28;20247;-95
2024/03/05 04:14:09;;;;;;;11.13;8.82;;;;;;;;;;5014651;28;20227;-94
2024/03/05 04:16:40;;;;;;;10.77;8.85;;;;;;;;;;5015109;28;20198;-93
2024/03/05 04:19:08;;;;;;;14.70;10.13;;;;;;;;;;5015227;28;20272;-94
2024/03/05 04:21:42;;;;;;;13.38;11.13;;;;;;;;;;5015260;28;20227;-94
2024/03/05 04:24:13;;;;;;;16.73;12.15;;;;;;;;;;5019200;28;20218;-94
2024/03/05 04:26:41;;;;;;;14.15;11.00;;;;;;;;;;5017947;28;20203;-94
2024/03/05 04:29:09;;;;;;;12.90;10.18;;;;;;;;;;5017363;28;20187;-94
2024/03/05 04:31:38;;;;;;;12.48;10.30;;;;;;;;;;5017638;28;20217;-93
2024/03/05 04:34:07;;;;;;;14.00;10.82;;;;;;;;;;5015607;28;20199;-95
2024/03/05 04:36:38;;;;;;;16.70;11.48;;;;;;;;;;5014109;28;20392;-95
2024/03/05 04:39:15;;;;;;;18.25;12.75;;;;;;;;;;5013336;28;20203;-94
2024/03/05 04:41:45;;;;;;;16.42;12.27;;;;;;;;;;5013265;28;20310;-95
2024/03/05 04:44:13;;;;;;;19.15;12.63;;;;;;;;;;5013067;28;20243;-95
2024/03/05 04:46:41;;;;;;;19.08;13.20;;;;;;;;;;5011971;28;20199;-95
2024/03/05 04:49:08;;;;;;;22.05;12.85;;;;;;;;;;5017078;28;20192;-95
2024/03/05 04:51:37;;;;;;;16.13;12.85;;;;;;;;;;5017651;28;20211;-93
2024/03/05 04:54:06;;;;;;;17.75;11.60;;;;;;;;;;5013502;28;20267;-94
2024/03/05 04:56:34;;;;;;;19.20;14.23;;;;;;;;;;5011105;28;20681;-93
2024/03/05 04:59:01;;;;;;;16.70;13.43;;;;;;;;;;5009344;28;20270;-95
2024/03/05 05:01:29;;;;;;;18.67;13.65;;;;;;;;;;5013836;28;20232;-96
2024/03/05 05:03:56;;;;;;;15.93;11.63;;;;;;;;;;5013694;28;20198;-94
2024/03/05 05:06:25;;;;;;;22.05;13.48;;;;;;;;;;5013652;28;20226;-94
2024/03/05 05:08:53;;;;;;;14.63;12.02;;;;;;;;;;5013133;28;20208;-94
2024/03/05 05:11:22;;;;;;;18.27;12.98;;;;;;;;;;5013173;28;20247;-94
2024/03/05 05:13:49;;;;;;;21.60;15.60;;;;;;;;;;5014671;28;20207;-93
2024/03/05 05:16:17;;;;;;;17.27;13.18;;;;;;;;;;5013938;28;20203;-94
2024/03/05 05:18:45;;;;;;;19.38;14.82;;;;;;;;;;5012795;28;20208;-94
2024/03/05 05:21:12;;;;;;;20.48;14.68;;;;;;;;;;5012696;28;20234;-95
2024/03/05 05:23:40;;;;;;;21.63;15.00;;;;;;;;;;5013423;28;20230;-95
2024/03/05 05:26:08;;;;;;;15.80;11.15;;;;;;;;;;5006242;28;20227;-93
2024/03/05 05:28:37;;;;;;;16.73;11.95;;;;;;;;;;5004548;28;20243;-94
2024/03/05 05:31:05;;;;;;;16.60;11.18;;;;;;;;;;5003752;28;20523;-94
2024/03/05 05:33:34;;;;;;;18.30;12.10;;;;;;;;;;5003062;28;20250;-95
2024/03/05 05:36:01;;;;;;;16.60;13.57;;;;;;;;;;5015250;28;20207;-93
2024/03/05 05:38:29;;;;;;;16.67;11.77;;;;;;;;;;5017763;28;20199;-93
2024/03/05 05:40:58;;;;;;;20.05;13.07;;;;;;;;;;5016643;28;20278;-95
2024/03/05 05:43:25;;;;;;;21.02;13.60;;;;;;;;;;5013712;28;20214;-95
2024/03/05 05:45:54;;;;;;;22.67;14.70;;;;;;;;;;5013266;28;20223;-95
2024/03/05 05:48:24;;;;;;;21.40;14.93;;;;;;;;;;5013499;28;20203;-94
2024/03/05 05:50:55;;;;;;;20.02;14.15;;;;;;;;;;5013664;28;20239;-95
2024/03/05 05:53:22;;;;;;;17.95;13.63;;;;;;;;;;5013886;28;20204;-94
2024/03/05 05:55:50;;;;;;;23.75;15.90;;;;;;;;;;5013018;28;20204;-93
2024/03/05 05:58:18;;;;;;;23.52;15.40;;;;;;;;;;5009411;28;20218;-94
2024/03/05 06:00:47;;;;;;;21.42;15.02;;;;;;;;;;5013119;28;20212;-94
2024/03/05 06:03:16;;;;;;;20.50;13.68;;;;;;;;;;5014195;28;20215;-94
2024/03/05 06:05:46;;;;;;;23.98;15.07;;;;;;;;;;5013467;28;20251;-94
2024/03/05 06:08:14;;;;;;;26.30;16.02;;;;;;;;;;5013317;28;20206;-95
2024/03/05 06:10:42;;;;;;;26.40;16.98;;;;;;;;;;5013721;28;20223;-95
2024/03/05 06:13:10;;;;;;;22.38;15.75;;;;;;;;;;5013561;28;20215;-94
2024/03/05 06:15:38;;;;;;;26.33;17.10;;;;;;;;;;5012433;28;20207;-94
2024/03/05 06:18:06;;;;;;;21.67;15.50;;;;;;;;;;5015394;28;20223;-94
2024/03/05 06:20:35;;;;;;;20.75;14.52;;;;;;;;;;5016933;28;20223;-94
2024/03/05 06:23:04;;;;;;;22.95;15.23;;;;;;;;;;5014187;28;20208;-94
2024/03/05 06:25:32;;;;;;;21.60;16.05;;;;;;;;;;5013030;28;20291;-94
2024/03/05 06:27:59;;;;;;;20.55;15.32;;;;;;;;;;5012951;28;20204;-94
2024/03/05 06:30:28;;;;;;;17.98;13.50;;;;;;;;;;5012779;28;20220;-93
2024/03/05 06:32:56;;;;;;;19.83;14.60;;;;;;;;;;5011759;28;20214;-95
2024/03/05 06:35:27;;;;;;;17.95;14.10;;;;;;;;;;5012656;28;20234;-94
2024/03/05 06:37:57;;;;;;;19.08;13.18;;;;;;;;;;5012003;28;20215;-94
2024/03/05 06:40:25;;;;;;;21.27;14.20;;;;;;;;;;5010757;28;20254;-95
2024/03/05 06:42:53;;;;;;;19.98;14.85;;;;;;;;;;5010996;28;20238;-94
2024/03/05 06:45:27;;;;;;;12.85;10.48;;;;;;;;;;5011821;28;20239;-95
2024/03/05 06:48:00;;;;;;;18.73;12.77;;;;;;;;;;5012625;28;20274;-95
2024/03/05 06:50:36;;;;;;;15.13;11.15;;;;;;;;;;5014883;28;20219;-94
2024/03/05 06:58:36;;;;;;;14.05;11.05;;;;;;;;;;5013191;28;20230;-94
2024/03/05 07:01:07;;;;;;;15.00;10.90;;;;;;;;;;5017097;28;20254;-94
2024/03/05 07:03:35;;;;;;;14.30;10.68;;;;;;;;;;5016328;28;20204;-94
2024/03/05 07:06:07;;;;;;;15.20;12.35;;;;;;;;;;5014905;28;20234;-94
2024/03/05 07:08:38;;;;;;;17.35;12.50;;;;;;;;;;5014157;28;20497;-95
2024/03/05 07:11:08;;;;;;;15.32;10.50;;;;;;;;;;5013234;28;20263;-95
2024/03/05 07:13:36;;;;;;;10.80;8.07;;;;;;;;;;5013553;28;20204;-94
2024/03/05 07:16:06;;;;;;;8.68;6.63;;;;;;;;;;5013712;28;20214;-94
2024/03/05 07:18:36;;;;;;;11.82;9.82;;;;;;;;;;5013223;28;20264;-94
2024/03/05 07:21:04;;;;;;;11.20;8.25;;;;;;;;;;5013327;28;20307;-94
2024/03/05 07:23:31;;;;;;;15.73;12.15;;;;;;;;;;5011810;28;20218;-94
2024/03/05 07:26:00;;;;;;;12.52;9.73;;;;;;;;;;5012100;28;20813;-94
2024/03/05 07:28:28;;;;;;;9.93;7.10;;;;;;;;;;5012285;28;20219;-94
2024/03/05 07:30:55;;;;;;;15.10;11.30;;;;;;;;;;5013596;28;20228;-95
2024/03/05 07:33:24;;;;;;;20.25;14.48;;;;;;;;;;5013765;28;20204;-94
2024/03/05 07:35:51;;;;;;;21.67;14.38;;;;;;;;;;5012386;28;20204;-94
2024/03/05 07:38:19;;;;;;;23.25;14.80;;;;;;;;;;5012088;28;20219;-94
2024/03/05 07:40:46;;;;;;;17.65;13.38;;;;;;;;;;5013209;28;20239;-94
2024/03/05 07:43:16;;;;;;;20.35;13.43;;;;;;;;;;5014093;28;20200;-95
2024/03/05 07:45:44;;;;;;;20.35;14.50;;;;;;;;;;5015823;28;20223;-95
2024/03/05 07:48:11;;;;;;;20.55;14.18;;;;;;;;;;5018879;28;20204;-93
2024/03/05 07:50:40;;;;;;;21.55;14.82;;;;;;;;;;5019581;28;20219;-96
2024/03/05 07:53:08;;;;;;;21.38;15.43;;;;;;;;;;5015825;28;20208;-95
2024/03/05 07:55:37;;;;;;;21.48;15.52;;;;;;;;;;5012250;28;20200;-94
2024/03/05 07:58:06;;;;;;;22.73;13.35;;;;;;;;;;5011694;28;20204;-94
2024/03/05 08:00:37;;;;;;;20.85;15.38;;;;;;;;;;5013506;28;20220;-94
2024/03/05 08:03:05;;;;;;;17.88;13.15;;;;;;;;;;5017084;28;20203;-94
2024/03/05 08:05:34;;;;;;;20.42;13.90;;;;;;;;;;5017210;28;20204;-95
2024/03/05 08:08:02;;;;;;;20.05;14.43;;;;;;;;;;5017097;28;20203;-94
2024/03/05 08:10:34;;;;;;;19.75;13.13;;;;;;;;;;5016542;28;20227;-93
2024/03/05 08:13:02;;;;;;;24.38;16.10;;;;;;;;;;5014992;28;20211;-94
2024/03/05 08:15:29;;;;;;;21.17;15.93;;;;;;;;;;5012650;28;20208;-95
2024/03/05 08:17:58;;;;;;;20.48;15.68;;;;;;;;;;5013448;28;20222;-94
2024/03/05 08:20:27;;;;;;;20.25;15.40;;;;;;;;;;5012157;28;20238;-94
2024/03/05 08:22:55;;;;;;;19.77;14.15;;;;;;;;;;5012325;28;20210;-94
2024/03/05 08:25:24;;;;;;;20.77;14.52;;;;;;;;;;5011641;28;20252;-94
2024/03/05 08:27:54;;;;;;;16.77;12.25;;;;;;;;;;5011437;28;20230;-95
2024/03/05 08:30:24;;;;;;;23.42;14.20;;;;;;;;;;5011466;28;20296;-93
2024/03/05 08:32:52;;;;;;;15.65;12.00;;;;;;;;;;5011153;28;20200;-95
2024/03/05 08:35:22;;;;;;;15.77;12.30;;;;;;;;;;5013064;28;20239;-94
2024/03/05 08:37:50;;;;;;;19.92;13.82;;;;;;;;;;5013299;28;20230;-95
2024/03/05 08:40:20;;;;;;;14.77;11.52;;;;;;;;;;5013506;28;20234;-94
2024/03/05 08:42:50;;;;;;;16.33;11.70;;;;;;;;;;5014143;28;20230;-95
2024/03/05 08:45:19;;;;;;;16.65;11.95;;;;;;;;;;5013208;28;20204;-95
2024/03/05 08:47:49;;;;;;;13.35;11.10;;;;;;;;;;5013970;28;20219;-94
2024/03/05 08:50:17;;;;;;;13.68;9.73;;;;;;;;;;5014982;28;20234;-94
2024/03/05 08:52:46;;;;;;;10.23;8.35;;;;;;;;;;5015736;28;20220;-95
2024/03/05 08:55:15;;;;;;;18.95;11.05;;;;;;;;;;5016901;28;20213;-95
2024/03/05 08:57:44;;;;;;;16.60;11.73;;;;;;;;;;5015751;28;20203;-95
2024/03/05 09:00:14;;;;;;;12.90;10.15;;;;;;;;;;5015907;28;20662;-96
2024/03/05 09:02:42;;;;;;;13.68;10.77;;;;;;;;;;5135141;23;20249;-94
2024/03/05 09:05:10;;;;;;;13.70;10.85;;;;;;;;;;5039547;28;20171;-92
2024/03/05 09:07:38;;;;;;;14.02;10.77;;;;;;;;;;5039823;28;20246;-93
2024/03/05 09:10:10;;;;;;;14.40;10.25;;;;;;;;;;5039857;28;20175;-94
2024/03/05 09:12:38;;;;;;;17.17;12.02;;;;;;;;;;5038780;28;20235;-96
2024/03/05 09:15:08;;;;;;;11.32;8.55;;;;;;;;;;5039495;28;20260;-94
2024/03/05 09:17:36;;;;;;;12.43;8.73;;;;;;;;;;5039418;28;20163;-94
2024/03/05 09:20:13;;;;;;;13.38;10.27;;;;;;;;;;5039386;28;20167;-94
2024/03/05 09:22:44;;;;;;;10.73;8.43;;;;;;;;;;5039328;28;20167;-95
2024/03/05 09:25:13;;;;;;;13.05;9.25;;;;;;;;;;5038891;28;20172;-93
2024/03/05 09:27:42;;;;;;;10.25;7.55;;;;;;;;;;5038962;28;20183;-93
2024/03/05 09:30:13;;;;;;;8.38;6.53;;;;;;;;;;5038255;28;20241;-93
2024/03/05 09:32:41;;;;;;;17.48;9.05;;;;;;;;;;5037669;28;20202;-92
2024/03/05 09:35:10;;;;;;;9.18;7.22;;;;;;;;;;5038065;28;20190;-94
2024/03/05 09:37:38;;;;;;;17.50;8.98;;;;;;;;;;5038091;28;20179;-93
2024/03/05 09:40:10;;;;;;;9.40;7.57;;;;;;;;;;5038107;28;20187;-93
2024/03/05 09:42:39;;;;;;;14.80;10.68;;;;;;;;;;5037659;28;20199;-93
2024/03/05 09:45:09;;;;;;;11.45;8.93;;;;;;;;;;5037988;28;20187;-93
2024/03/05 09:47:39;;;;;;;9.05;8.15;;;;;;;;;;5037856;28;20212;-94
2024/03/05 09:50:11;;;;;;;10.60;9.25;;;;;;;;;;5037953;28;20238;-94
2024/03/05 09:52:39;;;;;;;10.77;8.48;;;;;;;;;;5037651;28;20194;-93
2024/03/05 09:55:08;;;;;;;13.57;8.98;;;;;;;;;;5037785;28;20179;-93
2024/03/05 09:57:37;;;;;;;12.50;9.82;;;;;;;;;;5037742;28;20251;-93
2024/03/05 10:00:10;;;;;;;12.27;10.60;;;;;;;;;;5037788;28;20183;-93
2024/03/05 10:02:38;;;;;;;10.50;8.82;;;;;;;;;;5037462;28;20209;-93
2024/03/05 10:05:09;;;;;;;10.82;9.15;;;;;;;;;;5037760;28;20202;-94
2024/03/05 10:07:36;;;;;;;10.27;7.88;;;;;;;;;;5037813;28;20225;-92
2024/03/05 10:10:09;;;;;;;12.82;8.77;;;;;;;;;;5037722;28;20243;-95
2024/03/05 10:12:39;;;;;;;10.48;8.73;;;;;;;;;;5037419;28;20233;-92
2024/03/05 10:15:19;;;;;;;11.38;8.30;;;;;;;;;;5037500;28;20181;-93
2024/03/05 10:17:49;;;;;;;13.13;9.55;;;;;;;;;;5037658;28;20186;-94
2024/03/05 10:20:27;;;;;;;10.63;8.43;;;;;;;;;;5037702;28;20195;-91
2024/03/05 10:22:57;;;;;;;12.05;9.35;;;;;;;;;;5037800;28;20221;-94
2024/03/05 10:25:25;;;;;;;11.43;8.00;;;;;;;;;;5041195;28;20487;-91
2024/03/05 10:27:55;;;;;;;11.90;8.02;;;;;;;;;;5041367;28;20195;-92
2024/03/05 10:30:24;;;;;;;10.88;9.50;;;;;;;;;;5041532;28;20187;-94
2024/03/05 10:32:57;;;;;;;12.80;9.63;;;;;;;;;;5041180;28;20191;-93
2024/03/05 10:35:25;;;;;;;12.30;7.50;;;;;;;;;;5041265;28;20195;-92
2024/03/05 10:38:00;;;;;;;9.90;8.55;;;;;;;;;;5041438;28;20179;-93
2024/03/05 10:40:31;;;;;;;9.80;7.28;;;;;;;;;;5041204;28;20187;-93
2024/03/05 10:43:02;;;;;;;9.43;7.90;;;;;;;;;;5040994;28;20253;-92
2024/03/05 10:45:29;;;;;;;8.50;7.32;;;;;;;;;;5041156;28;20199;-93
2024/03/05 10:47:58;;;;;;;8.90;7.35;;;;;;;;;;5040870;28;20205;-93
2024/03/05 10:50:29;;;;;;;9.20;7.97;;;;;;;;;;5041068;28;20239;-92
2024/03/05 10:52:57;;;;;;;10.52;8.95;;;;;;;;;;5040669;28;20199;-91
2024/03/05 10:55:26;;;;;;;12.07;8.68;;;;;;;;;;5040977;28;20191;-93
2024/03/05 10:58:18;;;;;;;9.55;7.20;;;;;;;;;;5040274;28;20319;-93
2024/03/05 11:00:47;;;;;;;9.13;7.65;;;;;;;;;;5040776;28;20199;-92
2024/03/05 11:03:16;;;;;;;10.30;8.02;;;;;;;;;;5040306;28;20221;-92
2024/03/05 11:05:50;;;;;;;11.15;8.07;;;;;;;;;;5040745;28;20362;-93
2024/03/05 11:08:20;;;;;;;7.97;6.65;;;;;;;;;;5040390;28;20250;-94
2024/03/05 11:10:55;;;;;;;11.45;7.75;;;;;;;;;;5041434;28;20186;-92
2024/03/05 11:13:24;;;;;;;10.10;8.48;;;;;;;;;;5040406;28;20182;-92
2024/03/05 11:15:53;;;;;;;15.68;11.48;;;;;;;;;;5040597;28;20179;-92
2024/03/05 11:18:31;;;;;;;13.90;10.60;;;;;;;;;;5040131;28;20183;-92
2024/03/05 11:21:05;;;;;;;13.70;11.32;;;;;;;;;;5040312;28;20187;-93
2024/03/05 11:23:34;;;;;;;17.52;12.73;;;;;;;;;;5040300;28;20191;-93
2024/03/05 11:26:03;;;;;;;20.88;12.85;;;;;;;;;;5040382;28;20175;-93
2024/03/05 11:28:32;;;;;;;14.52;10.77;;;;;;;;;;5040281;28;20195;-91
2024/03/05 11:31:16;;;;;;;14.73;11.82;;;;;;;;;;5040351;28;20194;-93
2024/03/05 11:33:44;;;;;;;17.60;12.75;;;;;;;;;;5039985;28;20183;-92
2024/03/05 11:36:21;;;;;;;18.98;12.68;;;;;;;;;;5039065;28;20182;-93
2024/03/05 11:39:04;;;;;;;11.50;9.13;;;;;;;;;;5040121;28;20198;-92
2024/03/05 11:41:32;;;;;;;11.73;8.40;;;;;;;;;;5040067;28;20222;-92
2024/03/05 11:44:00;;;;;;;12.13;8.02;;;;;;;;;;5039878;28;20199;-92
2024/03/05 11:46:49;;;;;;;9.68;7.93;;;;;;;;;;5040201;28;20167;-92
2024/03/05 11:49:18;;;;;;;9.10;7.38;;;;;;;;;;5039900;28;20221;-92
2024/03/05 11:51:48;;;;;;;10.45;7.78;;;;;;;;;;5039819;28;20392;-92
2024/03/05 11:54:18;;;;;;;8.20;6.75;;;;;;;;;;5039775;28;20238;-93
2024/03/05 11:56:56;;;;;;;11.10;8.77;;;;;;;;;;5039601;28;20198;-91
2024/03/05 11:59:34;;;;;;;11.25;8.35;;;;;;;;;;5039790;28;20186;-92
2024/03/05 12:02:09;;;;;;;10.88;7.88;;;;;;;;;;5039393;28;20210;-94
2024/03/05 12:04:37;;;;;;;15.77;10.95;;;;;;;;;;5039764;28;20186;-91
2024/03/05 12:07:07;;;;;;;10.60;8.52;;;;;;;;;;5039721;28;20239;-92
2024/03/05 12:09:39;;;;;;;10.13;7.32;;;;;;;;;;5039603;28;20287;-92
2024/03/05 12:12:10;;;;;;;10.00;8.52;;;;;;;;;;5039391;28;20200;-92
2024/03/05 12:14:39;;;;;;;10.57;8.15;;;;;;;;;;5039526;28;20210;-92
2024/03/05 12:17:12;;;;;;;9.48;7.38;;;;;;;;;;5039507;28;20230;-95
2024/03/05 12:19:41;;;;;;;9.63;8.65;;;;;;;;;;5039440;28;20189;-92
2024/03/05 12:22:09;;;;;;;7.85;6.88;;;;;;;;;;5039146;28;20191;-92
2024/03/05 12:24:37;;;;;;;11.85;9.68;;;;;;;;;;5039354;28;20187;-92
2024/03/05 12:27:07;;;;;;;12.52;9.82;;;;;;;;;;5039205;28;20194;-93
2024/03/05 12:29:37;;;;;;;12.02;9.27;;;;;;;;;;5039151;28;20226;-92
2024/03/05 12:32:06;;;;;;;10.52;8.77;;;;;;;;;;5039090;28;20191;-93
2024/03/05 12:34:35;;;;;;;14.07;9.43;;;;;;;;;;5039159;28;20190;-95
2024/03/05 12:37:03;;;;;;;14.15;9.85;;;;;;;;;;5039129;28;20187;-92
2024/03/05 12:39:31;;;;;;;14.75;11.38;;;;;;;;;;5038995;28;20187;-92
2024/03/05 12:42:05;;;;;;;18.45;12.38;;;;;;;;;;5038717;28;20539;-92
2024/03/05 12:44:33;;;;;;;11.38;9.65;;;;;;;;;;5039049;28;20185;-93
2024/03/05 12:47:10;;;;;;;12.45;10.32;;;;;;;;;;5038532;28;20222;-93
2024/03/05 12:49:44;;;;;;;12.45;10.02;;;;;;;;;;5038817;28;20225;-93
2024/03/05 12:52:13;;;;;;;14.85;10.15;;;;;;;;;;5038726;28;20263;-93
2024/03/05 12:54:41;;;;;;;11.55;9.55;;;;;;;;;;5038888;28;20273;-93
2024/03/05 12:57:11;;;;;;;11.98;9.77;;;;;;;;;;5038528;28;20175;-94
2024/03/05 12:59:39;;;;;;;13.68;11.07;;;;;;;;;;5038783;28;20199;-93
2024/03/05 13:02:07;;;;;;;13.48;10.38;;;;;;;;;;5038276;28;20236;-95
2024/03/05 13:04:35;;;;;;;13.18;10.85;;;;;;;;;;5038596;28;20214;-94
2024/03/05 13:07:04;;;;;;;13.02;10.27;;;;;;;;;;5038618;28;20182;-93
2024/03/05 13:09:32;;;;;;;14.85;11.35;;;;;;;;;;5038493;28;20279;-93
2024/03/05 13:12:00;;;;;;;12.13;9.32;;;;;;;;;;5038265;28;20191;-96
2024/03/05 13:14:28;;;;;;;10.90;9.85;;;;;;;;;;5038454;28;20230;-95
2024/03/05 13:16:56;;;;;;;11.18;7.88;;;;;;;;;;5038448;28;20210;-96
2024/03/05 13:19:24;;;;;;;14.60;10.80;;;;;;;;;;5038477;28;20206;-94
2024/03/05 13:21:52;;;;;;;13.48;10.38;;;;;;;;;;5038227;28;20195;-94
2024/03/05 13:24:22;;;;;;;11.65;10.40;;;;;;;;;;5038247;28;20187;-94
2024/03/05 13:26:50;;;;;;;17.50;12.27;;;;;;;;;;5038244;28;20187;-92
2024/03/05 13:29:19;;;;;;;12.52;9.32;;;;;;;;;;5038168;28;20211;-93
2024/03/05 13:31:46;;;;;;;13.38;11.07;;;;;;;;;;5038021;28;20191;-93
2024/03/05 13:34:14;;;;;;;16.25;13.23;;;;;;;;;;5038086;28;20183;-95
2024/03/05 13:36:45;;;;;;;15.85;11.80;;;;;;;;;;5038081;28;20194;-95
2024/03/05 13:39:14;;;;;;;14.40;11.52;;;;;;;;;;5038137;28;20206;-95
2024/03/05 13:41:43;;;;;;;14.75;11.98;;;;;;;;;;5037732;28;20211;-95
2024/03/05 13:44:10;;;;;;;14.95;10.57;;;;;;;;;;5037873;28;20225;-95
2024/03/05 13:46:39;;;;;;;12.10;10.27;;;;;;;;;;5037894;28;20206;-95
2024/03/05 13:49:08;;;;;;;12.07;9.68;;;;;;;;;;5037987;28;20194;-94
2024/03/05 13:51:36;;;;;;;13.38;9.05;;;;;;;;;;5037786;28;20409;-95
2024/03/05 13:54:06;;;;;;;11.80;9.02;;;;;;;;;;5037723;28;20180;-95
2024/03/05 13:56:33;;;;;;;9.80;8.25;;;;;;;;;;5037766;28;20183;-95
2024/03/05 13:59:05;;;;;;;14.23;11.63;;;;;;;;;;5036478;28;20179;-95
2024/03/05 14:01:33;;;;;;;15.18;10.73;;;;;;;;;;5037368;28;20199;-95
2024/03/05 14:04:02;;;;;;;11.85;9.10;;;;;;;;;;5037548;28;20190;-94
2024/03/05 14:06:31;;;;;;;11.00;9.05;;;;;;;;;;5037816;28;20210;-94
2024/03/05 14:08:58;;;;;;;10.63;8.13;;;;;;;;;;5038003;28;20191;-94
2024/03/05 14:11:32;;;;;;;10.95;9.32;;;;;;;;;;5067034;22;20210;-95
2024/03/05 14:14:00;;;;;;;13.77;10.43;;;;;;;;;;5039830;28;20176;-95
2024/03/05 14:16:29;;;;;;;13.68;10.30;;;;;;;;;;5039927;28;20182;-94
2024/03/05 14:18:58;;;;;;;13.30;9.68;;;;;;;;;;5039331;28;20204;-95
2024/03/05 14:21:30;;;;;;;12.68;10.02;;;;;;;;;;5038982;28;20175;-94
2024/03/05 14:24:00;;;;;;;13.57;9.45;;;;;;;;;;5038773;28;20172;-95
2024/03/05 14:26:32;;;;;;;10.43;7.78;;;;;;;;;;5039282;28;20168;-96
2024/03/05 14:29:03;;;;;;;9.23;6.60;;;;;;;;;;5039021;28;20171;-96
2024/03/05 14:31:33;;;;;;;5.68;5.10;;;;;;;;;;5038417;28;20207;-95
2024/03/05 14:34:00;;;;;;;6.45;5.82;;;;;;;;;;5038623;28;20200;-96
2024/03/05 14:36:28;;;;;;;8.18;6.03;;;;;;;;;;5038660;28;20178;-94
2024/03/05 14:38:56;;;;;;;8.13;6.68;;;;;;;;;;5038713;28;20171;-94
2024/03/05 14:41:24;;;;;;;6.35;5.07;;;;;;;;;;5038772;28;20176;-94